sensor_id;sensor_type;location;lat;lon;timestamp;temperature;humidity
318;DHT22;146;53.448;10.228;2023-05-10T00:00:03;13.90;1.00
318;DHT22;146;53.448;10.228;2023-05-10T00:02:30;13.90;1.00
318;DHT22;146;53.448;10.228;2023-05-10T00:04:57;13.80;1.00
318;DHT22;146;53.448;10.228;2023-05-10T00:07:25;13.90;1.00
318;DHT22;146;53.448;10.228;2023-05-10T00:09:54;13.80;1.00
318;DHT22;146;53.448;10.228;2023-05-10T00:12:21;13.80;1.00
318;DHT22;146;53.448;10.228;2023-05-10T00:14:48;13.80;1.00
318;DHT22;146;53.448;10.228;2023-05-10T00:17:20;13.80;1.00
318;DHT22;146;53.448;10.228;2023-05-10T00:19:47;13.80;1.00
318;DHT22;146;53.448;10.228;2023-05-10T00:22:14;13.70;1.00
318;DHT22;146;53.448;10.228;2023-05-10T00:24:42;13.70;1.00
318;DHT22;146;53.448;10.228;2023-05-10T00:27:16;13.80;1.00
318;DHT22;146;53.448;10.228;2023-05-10T00:29:43;13.70;1.00
318;DHT22;146;53.448;10.228;2023-05-10T00:32:10;13.70;1.00
318;DHT22;146;53.448;10.228;2023-05-10T00:34:43;13.70;1.00
318;DHT22;146;53.448;10.228;2023-05-10T00:37:10;13.70;1.00
318;DHT22;146;53.448;10.228;2023-05-10T00:39:39;13.70;1.00
318;DHT22;146;53.448;10.228;2023-05-10T00:42:10;13.60;1.00
318;DHT22;146;53.448;10.228;2023-05-10T00:44:37;13.50;1.00
318;DHT22;146;53.448;10.228;2023-05-10T00:47:04;13.50;1.00
318;DHT22;146;53.448;10.228;2023-05-10T00:49:31;13.50;1.00
318;DHT22;146;53.448;10.228;2023-05-10T00:52:06;13.50;1.00
318;DHT22;146;53.448;10.228;2023-05-10T00:54:33;13.50;1.00
318;DHT22;146;53.448;10.228;2023-05-10T00:57:06;13.50;1.00
318;DHT22;146;53.448;10.228;2023-05-10T00:59:40;13.50;1.00
318;DHT22;146;53.448;10.228;2023-05-10T01:02:13;13.50;1.00
318;DHT22;146;53.448;10.228;2023-05-10T01:04:40;13.40;1.00
318;DHT22;146;53.448;10.228;2023-05-10T01:07:07;13.40;1.00
318;DHT22;146;53.448;10.228;2023-05-10T01:09:39;13.30;1.00
318;DHT22;146;53.448;10.228;2023-05-10T01:12:09;13.30;1.00
318;DHT22;146;53.448;10.228;2023-05-10T01:14:37;13.30;1.00
318;DHT22;146;53.448;10.228;2023-05-10T01:17:07;13.40;1.00
318;DHT22;146;53.448;10.228;2023-05-10T01:19:36;13.30;1.00
318;DHT22;146;53.448;10.228;2023-05-10T01:22:13;13.30;1.00
318;DHT22;146;53.448;10.228;2023-05-10T01:25:16;13.20;1.00
318;DHT22;146;53.448;10.228;2023-05-10T01:28:12;13.20;1.00
318;DHT22;146;53.448;10.228;2023-05-10T01:33:47;13.10;1.00
318;DHT22;146;53.448;10.228;2023-05-10T01:36:22;13.10;1.00
318;DHT22;146;53.448;10.228;2023-05-10T01:39:01;13.10;1.00
318;DHT22;146;53.448;10.228;2023-05-10T01:41:36;13.10;1.00
318;DHT22;146;53.448;10.228;2023-05-10T01:44:13;13.00;1.00
318;DHT22;146;53.448;10.228;2023-05-10T01:46:42;13.00;1.00
318;DHT22;146;53.448;10.228;2023-05-10T01:49:15;13.00;1.00
318;DHT22;146;53.448;10.228;2023-05-10T01:51:46;13.00;1.00
318;DHT22;146;53.448;10.228;2023-05-10T01:54:14;13.00;1.00
318;DHT22;146;53.448;10.228;2023-05-10T01:56:43;12.90;1.00
318;DHT22;146;53.448;10.228;2023-05-10T01:59:12;12.90;1.00
318;DHT22;146;53.448;10.228;2023-05-10T02:01:45;13.00;1.00
318;DHT22;146;53.448;10.228;2023-05-10T02:04:16;13.00;1.00
318;DHT22;146;53.448;10.228;2023-05-10T02:06:44;12.90;1.00
318;DHT22;146;53.448;10.228;2023-05-10T02:09:14;12.80;1.00
318;DHT22;146;53.448;10.228;2023-05-10T02:11:43;12.70;1.00
318;DHT22;146;53.448;10.228;2023-05-10T02:14:11;12.70;1.00
318;DHT22;146;53.448;10.228;2023-05-10T02:16:39;12.60;1.00
318;DHT22;146;53.448;10.228;2023-05-10T02:19:07;12.60;1.00
318;DHT22;146;53.448;10.228;2023-05-10T02:21:43;12.50;1.00
318;DHT22;146;53.448;10.228;2023-05-10T02:24:11;12.50;1.00
318;DHT22;146;53.448;10.228;2023-05-10T02:26:38;12.50;1.00
318;DHT22;146;53.448;10.228;2023-05-10T02:29:06;12.50;1.00
318;DHT22;146;53.448;10.228;2023-05-10T02:31:38;12.40;1.00
318;DHT22;146;53.448;10.228;2023-05-10T02:34:06;12.50;1.00
318;DHT22;146;53.448;10.228;2023-05-10T02:36:35;12.50;1.00
318;DHT22;146;53.448;10.228;2023-05-10T02:39:02;12.50;1.00
318;DHT22;146;53.448;10.228;2023-05-10T02:41:33;12.50;1.00
318;DHT22;146;53.448;10.228;2023-05-10T02:44:06;12.50;1.00
318;DHT22;146;53.448;10.228;2023-05-10T02:46:34;12.50;1.00
318;DHT22;146;53.448;10.228;2023-05-10T02:49:02;12.40;1.00
318;DHT22;146;53.448;10.228;2023-05-10T02:51:32;12.40;1.00
318;DHT22;146;53.448;10.228;2023-05-10T02:54:08;12.40;1.00
318;DHT22;146;53.448;10.228;2023-05-10T02:56:40;12.40;1.00
318;DHT22;146;53.448;10.228;2023-05-10T02:59:09;12.30;1.00
318;DHT22;146;53.448;10.228;2023-05-10T03:01:36;12.20;1.00
318;DHT22;146;53.448;10.228;2023-05-10T03:04:03;12.10;1.00
318;DHT22;146;53.448;10.228;2023-05-10T03:06:30;12.10;1.00
318;DHT22;146;53.448;10.228;2023-05-10T03:09:03;12.10;1.00
318;DHT22;146;53.448;10.228;2023-05-10T03:11:43;12.10;1.00
318;DHT22;146;53.448;10.228;2023-05-10T03:14:21;12.20;1.00
318;DHT22;146;53.448;10.228;2023-05-10T03:17:04;12.20;1.00
318;DHT22;146;53.448;10.228;2023-05-10T03:19:39;12.20;1.00
318;DHT22;146;53.448;10.228;2023-05-10T03:22:10;12.20;1.00
318;DHT22;146;53.448;10.228;2023-05-10T03:24:44;12.20;1.00
318;DHT22;146;53.448;10.228;2023-05-10T03:27:11;12.10;1.00
318;DHT22;146;53.448;10.228;2023-05-10T03:29:40;12.10;1.00
318;DHT22;146;53.448;10.228;2023-05-10T03:32:08;12.20;1.00
318;DHT22;146;53.448;10.228;2023-05-10T03:34:41;12.20;1.00
318;DHT22;146;53.448;10.228;2023-05-10T03:37:08;12.20;1.00
318;DHT22;146;53.448;10.228;2023-05-10T03:39:40;12.20;1.00
318;DHT22;146;53.448;10.228;2023-05-10T03:42:11;12.20;1.00
318;DHT22;146;53.448;10.228;2023-05-10T03:44:53;12.20;1.00
318;DHT22;146;53.448;10.228;2023-05-10T03:47:23;12.20;1.00
318;DHT22;146;53.448;10.228;2023-05-10T03:49:50;12.20;1.00
318;DHT22;146;53.448;10.228;2023-05-10T03:52:20;12.20;1.00
318;DHT22;146;53.448;10.228;2023-05-10T03:54:54;12.20;1.00
318;DHT22;146;53.448;10.228;2023-05-10T03:57:25;12.20;1.00
318;DHT22;146;53.448;10.228;2023-05-10T03:59:52;12.20;1.00
318;DHT22;146;53.448;10.228;2023-05-10T04:02:18;12.20;1.00
318;DHT22;146;53.448;10.228;2023-05-10T04:04:45;12.10;1.00
318;DHT22;146;53.448;10.228;2023-05-10T04:07:18;12.10;1.00
318;DHT22;146;53.448;10.228;2023-05-10T04:09:45;12.10;1.00
318;DHT22;146;53.448;10.228;2023-05-10T04:12:11;12.10;1.00
318;DHT22;146;53.448;10.228;2023-05-10T04:14:40;12.10;1.00
318;DHT22;146;53.448;10.228;2023-05-10T04:17:06;12.10;1.00
318;DHT22;146;53.448;10.228;2023-05-10T04:19:39;12.10;1.00
318;DHT22;146;53.448;10.228;2023-05-10T04:22:06;12.10;1.00
318;DHT22;146;53.448;10.228;2023-05-10T04:24:32;12.10;1.00
318;DHT22;146;53.448;10.228;2023-05-10T04:27:06;12.20;1.00
318;DHT22;146;53.448;10.228;2023-05-10T04:29:33;12.20;1.00
318;DHT22;146;53.448;10.228;2023-05-10T04:32:01;12.20;1.00
318;DHT22;146;53.448;10.228;2023-05-10T04:34:29;12.20;1.00
318;DHT22;146;53.448;10.228;2023-05-10T04:36:55;12.20;1.00
318;DHT22;146;53.448;10.228;2023-05-10T04:39:25;12.20;1.00
318;DHT22;146;53.448;10.228;2023-05-10T04:41:54;12.20;1.00
318;DHT22;146;53.448;10.228;2023-05-10T04:44:24;12.20;1.00
318;DHT22;146;53.448;10.228;2023-05-10T04:46:51;12.20;1.00
318;DHT22;146;53.448;10.228;2023-05-10T04:49:22;12.20;1.00
318;DHT22;146;53.448;10.228;2023-05-10T04:51:49;12.20;1.00
318;DHT22;146;53.448;10.228;2023-05-10T04:54:15;12.20;1.00
318;DHT22;146;53.448;10.228;2023-05-10T04:56:42;12.20;1.00
318;DHT22;146;53.448;10.228;2023-05-10T04:59:09;12.30;1.00
318;DHT22;146;53.448;10.228;2023-05-10T05:01:36;12.30;1.00
318;DHT22;146;53.448;10.228;2023-05-10T05:04:03;12.30;1.00
318;DHT22;146;53.448;10.228;2023-05-10T05:06:31;12.30;1.00
318;DHT22;146;53.448;10.228;2023-05-10T05:09:04;12.40;1.00
318;DHT22;146;53.448;10.228;2023-05-10T05:11:34;12.40;1.00
318;DHT22;146;53.448;10.228;2023-05-10T05:17:42;12.70;1.00
318;DHT22;146;53.448;10.228;2023-05-10T05:20:11;12.80;1.00
318;DHT22;146;53.448;10.228;2023-05-10T05:22:39;12.70;1.00
318;DHT22;146;53.448;10.228;2023-05-10T05:25:07;12.80;1.00
318;DHT22;146;53.448;10.228;2023-05-10T05:27:34;12.80;1.00
318;DHT22;146;53.448;10.228;2023-05-10T05:30:00;12.90;1.00
318;DHT22;146;53.448;10.228;2023-05-10T05:32:27;12.90;1.00
318;DHT22;146;53.448;10.228;2023-05-10T05:34:54;12.90;1.00
318;DHT22;146;53.448;10.228;2023-05-10T05:37:24;13.00;1.00
318;DHT22;146;53.448;10.228;2023-05-10T05:39:52;13.10;1.00
318;DHT22;146;53.448;10.228;2023-05-10T05:42:20;13.20;1.00
318;DHT22;146;53.448;10.228;2023-05-10T05:44:47;13.20;1.00
318;DHT22;146;53.448;10.228;2023-05-10T05:47:26;13.30;1.00
318;DHT22;146;53.448;10.228;2023-05-10T05:49:52;13.30;1.00
318;DHT22;146;53.448;10.228;2023-05-10T05:52:22;13.50;1.00
318;DHT22;146;53.448;10.228;2023-05-10T05:54:49;13.60;1.00
318;DHT22;146;53.448;10.228;2023-05-10T05:57:17;13.60;1.00
318;DHT22;146;53.448;10.228;2023-05-10T05:59:47;13.60;1.00
318;DHT22;146;53.448;10.228;2023-05-10T06:02:19;13.60;1.00
318;DHT22;146;53.448;10.228;2023-05-10T06:04:49;13.80;1.00
318;DHT22;146;53.448;10.228;2023-05-10T06:07:18;13.90;1.00
318;DHT22;146;53.448;10.228;2023-05-10T06:09:45;14.00;1.00
318;DHT22;146;53.448;10.228;2023-05-10T06:12:14;14.00;1.00
318;DHT22;146;53.448;10.228;2023-05-10T06:14:42;14.10;1.00
318;DHT22;146;53.448;10.228;2023-05-10T06:17:09;14.20;1.00
318;DHT22;146;53.448;10.228;2023-05-10T06:19:35;14.30;1.00
318;DHT22;146;53.448;10.228;2023-05-10T06:22:02;14.40;1.00
318;DHT22;146;53.448;10.228;2023-05-10T06:24:39;14.50;1.00
318;DHT22;146;53.448;10.228;2023-05-10T06:27:06;14.50;1.00
318;DHT22;146;53.448;10.228;2023-05-10T06:29:33;14.60;1.00
318;DHT22;146;53.448;10.228;2023-05-10T06:32:04;14.60;1.00
318;DHT22;146;53.448;10.228;2023-05-10T06:34:34;14.70;1.00
318;DHT22;146;53.448;10.228;2023-05-10T06:37:04;14.80;1.00
318;DHT22;146;53.448;10.228;2023-05-10T06:39:33;15.00;1.00
318;DHT22;146;53.448;10.228;2023-05-10T06:42:00;15.00;1.00
318;DHT22;146;53.448;10.228;2023-05-10T06:44:28;15.10;1.00
318;DHT22;146;53.448;10.228;2023-05-10T06:46:54;15.10;1.00
318;DHT22;146;53.448;10.228;2023-05-10T06:49:23;15.20;1.00
318;DHT22;146;53.448;10.228;2023-05-10T06:51:49;15.20;1.00
318;DHT22;146;53.448;10.228;2023-05-10T06:54:19;15.20;1.00
318;DHT22;146;53.448;10.228;2023-05-10T06:56:46;15.30;1.00
318;DHT22;146;53.448;10.228;2023-05-10T06:59:13;15.30;1.00
318;DHT22;146;53.448;10.228;2023-05-10T07:01:40;15.40;1.00
318;DHT22;146;53.448;10.228;2023-05-10T07:04:07;15.30;1.00
318;DHT22;146;53.448;10.228;2023-05-10T07:06:35;15.40;1.00
318;DHT22;146;53.448;10.228;2023-05-10T07:09:02;15.50;1.00
318;DHT22;146;53.448;10.228;2023-05-10T07:11:31;15.60;1.00
318;DHT22;146;53.448;10.228;2023-05-10T07:13:58;15.70;1.00
318;DHT22;146;53.448;10.228;2023-05-10T07:16:40;15.80;1.00
318;DHT22;146;53.448;10.228;2023-05-10T07:19:07;15.80;1.00
318;DHT22;146;53.448;10.228;2023-05-10T07:21:36;15.80;1.00
318;DHT22;146;53.448;10.228;2023-05-10T07:24:03;15.80;1.00
318;DHT22;146;53.448;10.228;2023-05-10T07:26:29;15.90;1.00
318;DHT22;146;53.448;10.228;2023-05-10T07:28:59;16.00;1.00
318;DHT22;146;53.448;10.228;2023-05-10T07:31:34;16.10;1.00
318;DHT22;146;53.448;10.228;2023-05-10T07:34:01;16.10;1.00
318;DHT22;146;53.448;10.228;2023-05-10T07:36:31;16.10;1.00
318;DHT22;146;53.448;10.228;2023-05-10T07:38:59;16.10;1.00
318;DHT22;146;53.448;10.228;2023-05-10T07:41:29;16.10;1.00
318;DHT22;146;53.448;10.228;2023-05-10T07:43:55;16.00;1.00
318;DHT22;146;53.448;10.228;2023-05-10T07:46:22;16.00;1.00
318;DHT22;146;53.448;10.228;2023-05-10T07:48:49;16.00;1.00
318;DHT22;146;53.448;10.228;2023-05-10T07:51:16;16.10;1.00
318;DHT22;146;53.448;10.228;2023-05-10T07:53:42;16.10;1.00
318;DHT22;146;53.448;10.228;2023-05-10T07:56:24;16.30;1.00
318;DHT22;146;53.448;10.228;2023-05-10T07:58:52;16.40;1.00
318;DHT22;146;53.448;10.228;2023-05-10T08:01:29;16.50;1.00
318;DHT22;146;53.448;10.228;2023-05-10T08:03:56;16.50;1.00
318;DHT22;146;53.448;10.228;2023-05-10T08:06:28;16.60;1.00
318;DHT22;146;53.448;10.228;2023-05-10T08:08:55;16.60;1.00
318;DHT22;146;53.448;10.228;2023-05-10T08:11:27;16.70;1.00
318;DHT22;146;53.448;10.228;2023-05-10T08:13:54;16.70;1.00
318;DHT22;146;53.448;10.228;2023-05-10T08:16:23;16.70;1.00
318;DHT22;146;53.448;10.228;2023-05-10T08:18:52;16.80;1.00
318;DHT22;146;53.448;10.228;2023-05-10T08:21:33;16.90;1.00
318;DHT22;146;53.448;10.228;2023-05-10T08:24:04;17.00;1.00
318;DHT22;146;53.448;10.228;2023-05-10T08:26:42;17.00;1.00
318;DHT22;146;53.448;10.228;2023-05-10T08:29:09;17.00;1.00
318;DHT22;146;53.448;10.228;2023-05-10T08:31:45;17.20;1.00
318;DHT22;146;53.448;10.228;2023-05-10T08:34:15;17.30;1.00
318;DHT22;146;53.448;10.228;2023-05-10T08:36:42;17.40;1.00
318;DHT22;146;53.448;10.228;2023-05-10T08:39:12;17.50;1.00
318;DHT22;146;53.448;10.228;2023-05-10T08:41:39;17.70;1.00
318;DHT22;146;53.448;10.228;2023-05-10T08:44:11;17.90;1.00
318;DHT22;146;53.448;10.228;2023-05-10T08:46:41;18.00;1.00
318;DHT22;146;53.448;10.228;2023-05-10T08:49:17;18.10;1.00
318;DHT22;146;53.448;10.228;2023-05-10T08:51:47;18.20;1.00
318;DHT22;146;53.448;10.228;2023-05-10T08:54:25;18.30;1.00
318;DHT22;146;53.448;10.228;2023-05-10T08:56:58;18.30;1.00
318;DHT22;146;53.448;10.228;2023-05-10T08:59:36;18.30;1.00
318;DHT22;146;53.448;10.228;2023-05-10T09:02:05;18.20;1.00
318;DHT22;146;53.448;10.228;2023-05-10T09:04:32;18.10;1.00
318;DHT22;146;53.448;10.228;2023-05-10T09:07:07;18.10;1.00
318;DHT22;146;53.448;10.228;2023-05-10T09:09:43;17.90;1.00
318;DHT22;146;53.448;10.228;2023-05-10T09:12:10;17.80;1.00
318;DHT22;146;53.448;10.228;2023-05-10T09:14:38;17.80;1.00
318;DHT22;146;53.448;10.228;2023-05-10T09:17:06;17.80;1.00
318;DHT22;146;53.448;10.228;2023-05-10T09:19:36;17.90;1.00
318;DHT22;146;53.448;10.228;2023-05-10T09:22:02;17.90;1.00
318;DHT22;146;53.448;10.228;2023-05-10T09:24:30;18.00;1.00
318;DHT22;146;53.448;10.228;2023-05-10T09:26:57;18.00;1.00
318;DHT22;146;53.448;10.228;2023-05-10T09:29:24;17.90;1.00
318;DHT22;146;53.448;10.228;2023-05-10T09:31:52;17.80;1.00
318;DHT22;146;53.448;10.228;2023-05-10T09:34:28;17.80;1.00
318;DHT22;146;53.448;10.228;2023-05-10T09:37:02;17.80;1.00
318;DHT22;146;53.448;10.228;2023-05-10T09:39:35;17.60;1.00
318;DHT22;146;53.448;10.228;2023-05-10T09:42:06;17.60;1.00
318;DHT22;146;53.448;10.228;2023-05-10T09:44:34;17.60;1.00
318;DHT22;146;53.448;10.228;2023-05-10T09:47:02;17.40;1.00
318;DHT22;146;53.448;10.228;2023-05-10T09:49:33;17.40;1.00
318;DHT22;146;53.448;10.228;2023-05-10T09:52:07;17.40;1.00
318;DHT22;146;53.448;10.228;2023-05-10T09:54:34;17.40;1.00
318;DHT22;146;53.448;10.228;2023-05-10T09:57:01;17.30;1.00
318;DHT22;146;53.448;10.228;2023-05-10T09:59:29;17.30;1.00
318;DHT22;146;53.448;10.228;2023-05-10T10:01:57;17.30;1.00
318;DHT22;146;53.448;10.228;2023-05-10T10:04:25;17.20;1.00
318;DHT22;146;53.448;10.228;2023-05-10T10:06:59;17.20;1.00
318;DHT22;146;53.448;10.228;2023-05-10T10:09:34;17.20;1.00
318;DHT22;146;53.448;10.228;2023-05-10T10:12:01;17.10;1.00
318;DHT22;146;53.448;10.228;2023-05-10T10:14:29;17.10;1.00
318;DHT22;146;53.448;10.228;2023-05-10T10:16:56;17.00;1.00
318;DHT22;146;53.448;10.228;2023-05-10T10:19:25;16.90;1.00
318;DHT22;146;53.448;10.228;2023-05-10T10:21:53;17.00;1.00
318;DHT22;146;53.448;10.228;2023-05-10T10:24:19;16.90;1.00
318;DHT22;146;53.448;10.228;2023-05-10T10:26:46;16.90;1.00
318;DHT22;146;53.448;10.228;2023-05-10T10:29:24;16.90;1.00
318;DHT22;146;53.448;10.228;2023-05-10T10:31:57;16.80;1.00
318;DHT22;146;53.448;10.228;2023-05-10T10:34:30;16.80;1.00
318;DHT22;146;53.448;10.228;2023-05-10T10:36:58;16.70;1.00
318;DHT22;146;53.448;10.228;2023-05-10T10:39:33;16.60;1.00
318;DHT22;146;53.448;10.228;2023-05-10T10:42:02;16.50;1.00
318;DHT22;146;53.448;10.228;2023-05-10T10:44:38;16.40;1.00
318;DHT22;146;53.448;10.228;2023-05-10T10:47:11;16.30;1.00
318;DHT22;146;53.448;10.228;2023-05-10T10:50:03;16.20;1.00
318;DHT22;146;53.448;10.228;2023-05-10T10:52:34;16.20;1.00
318;DHT22;146;53.448;10.228;2023-05-10T10:55:05;15.90;1.00
318;DHT22;146;53.448;10.228;2023-05-10T10:57:43;15.90;1.00
318;DHT22;146;53.448;10.228;2023-05-10T11:00:24;15.90;1.00
318;DHT22;146;53.448;10.228;2023-05-10T11:02:52;15.90;1.00
318;DHT22;146;53.448;10.228;2023-05-10T11:05:38;15.90;1.00
318;DHT22;146;53.448;10.228;2023-05-10T11:08:13;15.90;1.00
318;DHT22;146;53.448;10.228;2023-05-10T11:10:52;15.80;1.00
318;DHT22;146;53.448;10.228;2023-05-10T11:13:27;15.90;1.00
318;DHT22;146;53.448;10.228;2023-05-10T11:15:55;16.00;1.00
318;DHT22;146;53.448;10.228;2023-05-10T11:18:28;16.10;1.00
318;DHT22;146;53.448;10.228;2023-05-10T11:20:58;16.20;1.00
318;DHT22;146;53.448;10.228;2023-05-10T11:23:32;16.30;1.00
318;DHT22;146;53.448;10.228;2023-05-10T11:26:02;16.30;1.00
318;DHT22;146;53.448;10.228;2023-05-10T11:28:31;16.30;1.00
318;DHT22;146;53.448;10.228;2023-05-10T11:31:01;16.40;1.00
318;DHT22;146;53.448;10.228;2023-05-10T11:33:28;16.40;1.00
318;DHT22;146;53.448;10.228;2023-05-10T11:35:56;16.40;1.00
318;DHT22;146;53.448;10.228;2023-05-10T11:38:23;16.50;1.00
318;DHT22;146;53.448;10.228;2023-05-10T11:40:53;16.70;1.00
318;DHT22;146;53.448;10.228;2023-05-10T11:43:23;16.80;1.00
318;DHT22;146;53.448;10.228;2023-05-10T11:45:54;16.80;1.00
318;DHT22;146;53.448;10.228;2023-05-10T11:48:24;17.00;1.00
318;DHT22;146;53.448;10.228;2023-05-10T11:50:54;17.10;1.00
318;DHT22;146;53.448;10.228;2023-05-10T11:53:25;17.00;1.00
318;DHT22;146;53.448;10.228;2023-05-10T11:55:55;17.10;1.00
318;DHT22;146;53.448;10.228;2023-05-10T11:58:32;17.10;1.00
318;DHT22;146;53.448;10.228;2023-05-10T12:00:59;17.30;1.00
318;DHT22;146;53.448;10.228;2023-05-10T12:03:27;17.20;1.00
318;DHT22;146;53.448;10.228;2023-05-10T12:05:57;17.20;1.00
318;DHT22;146;53.448;10.228;2023-05-10T12:08:29;17.10;1.00
318;DHT22;146;53.448;10.228;2023-05-10T12:11:05;17.10;1.00
318;DHT22;146;53.448;10.228;2023-05-10T12:13:37;17.20;1.00
318;DHT22;146;53.448;10.228;2023-05-10T12:16:21;17.10;1.00
318;DHT22;146;53.448;10.228;2023-05-10T12:18:49;17.20;1.00
318;DHT22;146;53.448;10.228;2023-05-10T12:21:16;17.30;1.00
318;DHT22;146;53.448;10.228;2023-05-10T12:23:50;17.30;1.00
318;DHT22;146;53.448;10.228;2023-05-10T12:26:22;17.40;1.00
318;DHT22;146;53.448;10.228;2023-05-10T12:28:50;17.40;1.00
318;DHT22;146;53.448;10.228;2023-05-10T12:31:19;17.40;1.00
318;DHT22;146;53.448;10.228;2023-05-10T12:33:51;17.40;1.00
318;DHT22;146;53.448;10.228;2023-05-10T12:36:24;17.50;1.00
318;DHT22;146;53.448;10.228;2023-05-10T12:39:02;17.50;1.00
318;DHT22;146;53.448;10.228;2023-05-10T12:41:29;17.60;1.00
318;DHT22;146;53.448;10.228;2023-05-10T12:43:59;17.80;1.00
318;DHT22;146;53.448;10.228;2023-05-10T12:46:29;17.80;1.00
318;DHT22;146;53.448;10.228;2023-05-10T12:49:06;17.90;1.00
318;DHT22;146;53.448;10.228;2023-05-10T12:51:36;18.10;1.00
318;DHT22;146;53.448;10.228;2023-05-10T12:54:04;18.10;1.00
318;DHT22;146;53.448;10.228;2023-05-10T12:56:34;18.20;1.00
318;DHT22;146;53.448;10.228;2023-05-10T12:59:05;18.30;1.00
318;DHT22;146;53.448;10.228;2023-05-10T13:01:35;18.20;1.00
318;DHT22;146;53.448;10.228;2023-05-10T13:04:05;18.10;1.00
318;DHT22;146;53.448;10.228;2023-05-10T13:06:34;18.00;1.00
318;DHT22;146;53.448;10.228;2023-05-10T13:09:01;17.70;1.00
318;DHT22;146;53.448;10.228;2023-05-10T13:11:40;17.70;1.00
318;DHT22;146;53.448;10.228;2023-05-10T13:14:07;17.70;1.00
318;DHT22;146;53.448;10.228;2023-05-10T13:16:33;17.70;1.00
318;DHT22;146;53.448;10.228;2023-05-10T13:19:00;17.70;1.00
318;DHT22;146;53.448;10.228;2023-05-10T13:21:27;17.80;1.00
318;DHT22;146;53.448;10.228;2023-05-10T13:23:54;17.80;1.00
318;DHT22;146;53.448;10.228;2023-05-10T13:26:24;17.90;1.00
318;DHT22;146;53.448;10.228;2023-05-10T13:28:55;17.80;1.00
318;DHT22;146;53.448;10.228;2023-05-10T13:31:25;17.90;1.00
318;DHT22;146;53.448;10.228;2023-05-10T13:34:04;17.90;1.00
318;DHT22;146;53.448;10.228;2023-05-10T13:36:31;17.90;1.00
318;DHT22;146;53.448;10.228;2023-05-10T13:38:58;17.90;1.00
318;DHT22;146;53.448;10.228;2023-05-10T13:41:32;17.90;1.00
318;DHT22;146;53.448;10.228;2023-05-10T13:44:01;18.00;1.00
318;DHT22;146;53.448;10.228;2023-05-10T13:46:28;18.10;1.00
318;DHT22;146;53.448;10.228;2023-05-10T13:48:55;18.20;1.00
318;DHT22;146;53.448;10.228;2023-05-10T13:51:22;18.30;1.00
318;DHT22;146;53.448;10.228;2023-05-10T13:53:57;18.30;1.00
318;DHT22;146;53.448;10.228;2023-05-10T13:56:23;18.30;1.00
318;DHT22;146;53.448;10.228;2023-05-10T13:58:53;18.30;1.00
318;DHT22;146;53.448;10.228;2023-05-10T14:01:24;18.30;1.00
318;DHT22;146;53.448;10.228;2023-05-10T14:03:51;18.10;1.00
318;DHT22;146;53.448;10.228;2023-05-10T14:06:21;18.30;1.00
318;DHT22;146;53.448;10.228;2023-05-10T14:08:51;18.30;1.00
318;DHT22;146;53.448;10.228;2023-05-10T14:11:23;18.20;1.00
318;DHT22;146;53.448;10.228;2023-05-10T14:13:50;18.10;1.00
318;DHT22;146;53.448;10.228;2023-05-10T14:16:23;18.20;1.00
318;DHT22;146;53.448;10.228;2023-05-10T14:18:49;18.20;1.00
318;DHT22;146;53.448;10.228;2023-05-10T14:21:19;18.30;1.00
318;DHT22;146;53.448;10.228;2023-05-10T14:23:46;18.30;1.00
318;DHT22;146;53.448;10.228;2023-05-10T14:26:22;18.30;1.00
318;DHT22;146;53.448;10.228;2023-05-10T14:28:49;18.40;1.00
318;DHT22;146;53.448;10.228;2023-05-10T14:31:24;18.40;1.00
318;DHT22;146;53.448;10.228;2023-05-10T14:33:51;18.50;1.00
318;DHT22;146;53.448;10.228;2023-05-10T14:36:18;18.50;1.00
318;DHT22;146;53.448;10.228;2023-05-10T14:38:44;18.50;1.00
318;DHT22;146;53.448;10.228;2023-05-10T14:41:11;18.50;1.00
318;DHT22;146;53.448;10.228;2023-05-10T14:43:43;18.50;1.00
318;DHT22;146;53.448;10.228;2023-05-10T14:46:09;18.50;1.00
318;DHT22;146;53.448;10.228;2023-05-10T14:48:47;18.50;1.00
318;DHT22;146;53.448;10.228;2023-05-10T14:51:14;18.60;1.00
318;DHT22;146;53.448;10.228;2023-05-10T14:53:40;18.50;1.00
318;DHT22;146;53.448;10.228;2023-05-10T14:56:10;18.30;1.00
318;DHT22;146;53.448;10.228;2023-05-10T14:58:39;18.40;1.00
318;DHT22;146;53.448;10.228;2023-05-10T15:01:09;18.40;1.00
318;DHT22;146;53.448;10.228;2023-05-10T15:03:39;18.40;1.00
318;DHT22;146;53.448;10.228;2023-05-10T15:06:08;18.40;1.00
318;DHT22;146;53.448;10.228;2023-05-10T15:08:34;18.50;1.00
318;DHT22;146;53.448;10.228;2023-05-10T15:11:04;18.60;1.00
318;DHT22;146;53.448;10.228;2023-05-10T15:13:33;18.70;1.00
318;DHT22;146;53.448;10.228;2023-05-10T15:16:02;18.70;1.00
318;DHT22;146;53.448;10.228;2023-05-10T15:18:34;18.80;1.00
318;DHT22;146;53.448;10.228;2023-05-10T15:21:01;18.90;1.00
318;DHT22;146;53.448;10.228;2023-05-10T15:23:30;19.00;1.00
318;DHT22;146;53.448;10.228;2023-05-10T15:26:00;19.10;1.00
318;DHT22;146;53.448;10.228;2023-05-10T15:28:28;19.00;1.00
318;DHT22;146;53.448;10.228;2023-05-10T15:30:58;18.90;1.00
318;DHT22;146;53.448;10.228;2023-05-10T15:33:25;18.80;1.00
318;DHT22;146;53.448;10.228;2023-05-10T15:35:55;18.70;1.00
318;DHT22;146;53.448;10.228;2023-05-10T15:38:22;18.80;1.00
318;DHT22;146;53.448;10.228;2023-05-10T15:40:55;18.70;1.00
318;DHT22;146;53.448;10.228;2023-05-10T15:43:22;18.70;1.00
318;DHT22;146;53.448;10.228;2023-05-10T15:45:49;18.70;1.00
318;DHT22;146;53.448;10.228;2023-05-10T15:48:16;18.80;1.00
318;DHT22;146;53.448;10.228;2023-05-10T15:50:43;18.80;1.00
318;DHT22;146;53.448;10.228;2023-05-10T15:53:09;18.80;1.00
318;DHT22;146;53.448;10.228;2023-05-10T15:55:36;18.70;1.00
318;DHT22;146;53.448;10.228;2023-05-10T15:58:04;18.70;1.00
318;DHT22;146;53.448;10.228;2023-05-10T16:00:31;18.70;1.00
318;DHT22;146;53.448;10.228;2023-05-10T16:02:58;18.50;1.00
318;DHT22;146;53.448;10.228;2023-05-10T16:05:25;18.50;1.00
318;DHT22;146;53.448;10.228;2023-05-10T16:07:56;18.40;1.00
318;DHT22;146;53.448;10.228;2023-05-10T16:10:23;18.30;1.00
318;DHT22;146;53.448;10.228;2023-05-10T16:12:52;18.30;1.00
318;DHT22;146;53.448;10.228;2023-05-10T16:15:21;18.30;1.00
318;DHT22;146;53.448;10.228;2023-05-10T16:17:50;18.20;1.00
318;DHT22;146;53.448;10.228;2023-05-10T16:20:20;18.20;1.00
318;DHT22;146;53.448;10.228;2023-05-10T16:22:46;18.20;1.00
318;DHT22;146;53.448;10.228;2023-05-10T16:25:13;18.20;1.00
318;DHT22;146;53.448;10.228;2023-05-10T16:27:40;18.10;1.00
318;DHT22;146;53.448;10.228;2023-05-10T16:30:11;18.10;1.00
318;DHT22;146;53.448;10.228;2023-05-10T16:32:42;18.10;1.00
318;DHT22;146;53.448;10.228;2023-05-10T16:35:09;18.10;1.00
318;DHT22;146;53.448;10.228;2023-05-10T16:37:40;18.20;1.00
318;DHT22;146;53.448;10.228;2023-05-10T16:40:10;18.20;1.00
318;DHT22;146;53.448;10.228;2023-05-10T16:42:40;18.20;1.00
318;DHT22;146;53.448;10.228;2023-05-10T16:45:07;18.30;1.00
318;DHT22;146;53.448;10.228;2023-05-10T16:47:39;18.30;1.00
318;DHT22;146;53.448;10.228;2023-05-10T16:50:08;18.30;1.00
318;DHT22;146;53.448;10.228;2023-05-10T16:52:35;18.40;1.00
318;DHT22;146;53.448;10.228;2023-05-10T16:55:02;18.40;1.00
318;DHT22;146;53.448;10.228;2023-05-10T16:57:32;18.40;1.00